Time;durP1;ratioP1;P1;durP2;ratioP2;P2;SDS_P1;SDS_P2;PMS_P1;PMS_P2;Temp;Humidity;BMP_temperature;BMP_pressure;BME280_temperature;BME280_humidity;BME280_pressure;Samples;Min_cycle;Max_cycle;Signal;HPM_P1;HPM_P2
2022/12/26 00:00:39;;;;;;;119.35;20.35;;;8.50;99.90;;;;;;5057222;28;20024;-69
2022/12/26 00:03:05;;;;;;;248.80;21.50;;;8.50;99.90;;;;;;5054904;28;20573;-70
2022/12/26 00:05:37;;;;;;;72.95;18.23;;;8.50;99.90;;;;;;5054797;28;20101;-70
2022/12/26 00:08:03;;;;;;;211.63;23.77;;;8.50;99.90;;;;;;5053520;28;20044;-71
2022/12/26 00:10:28;;;;;;;181.43;25.75;;;8.50;99.90;;;;;;5040915;28;20032;-70
2022/12/26 00:12:54;;;;;;;117.22;25.10;;;8.50;99.90;;;;;;5046199;28;20060;-70
2022/12/26 00:15:20;;;;;;;102.78;21.40;;;8.60;99.90;;;;;;5049599;28;20035;-72
2022/12/26 00:17:47;;;;;;;94.95;23.80;;;8.50;99.90;;;;;;5046543;28;20081;-73
2022/12/26 00:20:12;;;;;;;118.75;21.73;;;8.60;99.90;;;;;;5049460;28;20033;-71
2022/12/26 00:22:38;;;;;;;63.60;20.90;;;8.50;99.90;;;;;;5032469;28;20017;-72
2022/12/26 00:25:03;;;;;;;87.60;21.63;;;8.50;99.90;;;;;;5039992;28;20023;-71
2022/12/26 00:27:29;;;;;;;85.43;21.98;;;8.50;99.90;;;;;;5058652;28;20033;-70
2022/12/26 00:29:54;;;;;;;76.30;22.05;;;8.50;99.90;;;;;;5057360;28;20037;-71
2022/12/26 00:32:20;;;;;;;142.98;25.50;;;8.50;99.90;;;;;;5054669;28;20111;-73
2022/12/26 00:34:46;;;;;;;84.72;21.38;;;8.50;99.90;;;;;;5057641;28;20030;-72
2022/12/26 00:37:11;;;;;;;74.95;19.60;;;8.50;99.90;;;;;;5057889;28;20104;-72
2022/12/26 00:39:37;;;;;;;56.22;20.88;;;8.50;99.90;;;;;;5057861;28;20489;-71
2022/12/26 00:42:02;;;;;;;91.03;19.90;;;8.50;99.90;;;;;;5057599;28;20021;-70
2022/12/26 00:44:28;;;;;;;56.90;20.05;;;8.70;99.90;;;;;;5040574;28;20474;-72
2022/12/26 00:46:54;;;;;;;82.30;18.98;;;8.50;99.90;;;;;;5057662;28;20021;-71
2022/12/26 00:49:19;;;;;;;60.58;19.52;;;8.50;99.90;;;;;;5057923;28;20025;-70
2022/12/26 00:51:45;;;;;;;56.50;19.77;;;8.50;99.90;;;;;;5057383;28;20025;-72
2022/12/26 00:54:11;;;;;;;63.45;20.85;;;8.50;99.90;;;;;;5057873;28;20059;-71
2022/12/26 00:56:36;;;;;;;63.38;20.05;;;8.50;99.90;;;;;;5057597;28;20029;-70
2022/12/26 00:59:02;;;;;;;90.32;21.35;;;8.60;99.90;;;;;;5057502;28;20405;-71
2022/12/26 01:01:31;;;;;;;49.83;19.13;;;8.50;99.90;;;;;;5040564;28;20033;-72
2022/12/26 01:03:57;;;;;;;65.47;20.92;;;8.50;99.90;;;;;;5055596;28;20021;-71
2022/12/26 01:06:22;;;;;;;48.58;20.42;;;8.50;99.90;;;;;;5045029;28;20033;-71
2022/12/26 01:08:48;;;;;;;76.80;21.25;;;8.50;99.90;;;;;;5045277;28;20033;-72
2022/12/26 01:11:49;;;;;;;58.47;20.60;;;8.50;99.90;;;;;;5041279;28;20033;-72
2022/12/26 01:14:12;;;;;;;57.17;19.10;;;8.50;99.90;;;;;;5055288;28;20140;-71
2022/12/26 01:16:40;;;;;;;68.05;21.17;;;8.50;99.90;;;;;;5051763;28;20517;-71
2022/12/26 01:19:06;;;;;;;89.38;22.73;;;8.50;99.90;;;;;;5046886;28;20052;-70
2022/12/26 01:21:31;;;;;;;65.63;21.08;;;8.50;99.90;;;;;;5047655;28;20045;-71
2022/12/26 01:23:57;;;;;;;75.05;21.95;;;8.50;99.90;;;;;;5050090;28;20037;-71
2022/12/26 01:26:22;;;;;;;175.40;22.00;;;8.50;99.90;;;;;;5034507;28;20021;-72
2022/12/26 01:28:49;;;;;;;153.88;21.73;;;8.50;99.90;;;;;;5054634;28;20039;-71
2022/12/26 01:31:16;;;;;;;154.88;20.90;;;8.50;99.90;;;;;;5044876;28;20024;-71
2022/12/26 01:33:42;;;;;;;95.50;22.48;;;8.50;99.90;;;;;;5061813;28;20029;-72
2022/12/26 01:36:11;;;;;;;156.80;22.10;;;8.50;99.90;;;;;;5043852;28;20430;-72
2022/12/26 01:38:36;;;;;;;175.60;21.88;;;8.50;99.90;;;;;;5044365;28;20037;-71
2022/12/26 01:41:20;;;;;;;141.75;21.27;;;8.50;99.90;;;;;;5050657;28;20036;-70
2022/12/26 01:43:52;;;;;;;128.45;21.95;;;8.40;99.90;;;;;;5043530;28;20017;-71
2022/12/26 01:46:26;;;;;;;94.75;19.85;;;8.40;99.90;;;;;;5061066;28;20040;-72
2022/12/26 01:48:52;;;;;;;;;;;8.40;99.90;;;;;;5061038;28;20025;-71
2022/12/26 01:51:22;;;;;;;118.38;20.17;;;8.40;99.90;;;;;;5060778;28;19904;-72
2022/12/26 01:53:53;;;;;;;135.75;20.73;;;8.40;99.90;;;;;;5060924;28;20524;-71
2022/12/26 01:56:24;;;;;;;81.65;20.50;;;8.30;99.90;;;;;;5060198;28;20017;-71
2022/12/26 01:58:57;;;;;;;69.82;19.27;;;8.40;99.90;;;;;;5060712;28;20017;-70
2022/12/26 02:01:28;;;;;;;99.05;20.25;;;8.40;99.90;;;;;;5060510;28;20036;-72
2022/12/26 02:06:40;;;;;;;112.78;19.13;;;8.30;99.90;;;;;;5059135;28;20032;-70
2022/12/26 02:09:06;;;;;;;65.68;18.27;;;8.30;99.90;;;;;;5058884;28;20082;-70
2022/12/26 02:11:39;;;;;;;56.13;18.45;;;8.40;99.90;;;;;;5058611;28;20100;-71
2022/12/26 02:14:06;;;;;;;105.57;20.30;;;8.30;99.90;;;;;;5058080;28;20027;-70
2022/12/26 02:16:32;;;;;;;75.15;19.48;;;8.30;99.90;;;;;;5040868;28;20398;-71
2022/12/26 02:18:58;;;;;;;68.97;18.08;;;8.30;99.90;;;;;;5048155;28;20028;-70
2022/12/26 02:21:42;;;;;;;140.80;20.08;;;8.30;99.90;;;;;;5050866;28;20107;-70
2022/12/26 02:24:23;;;;;;;155.35;20.10;;;8.30;99.90;;;;;;5033651;28;20036;-72
2022/12/26 02:27:00;;;;;;;195.38;21.10;;;8.30;99.90;;;;;;5052906;28;20029;-70
2022/12/26 02:30:00;;;;;;;179.30;19.63;;;8.30;99.90;;;;;;5058867;28;20037;-72
2022/12/26 02:32:53;;;;;;;162.80;20.85;;;8.30;99.90;;;;;;5058779;28;20028;-72
2022/12/26 02:35:40;;;;;;;192.38;21.58;;;8.30;99.90;;;;;;5058629;28;20025;-72
2022/12/26 02:38:11;;;;;;;100.50;20.20;;;8.30;99.90;;;;;;5058248;28;20032;-71
2022/12/26 02:40:45;;;;;;;133.93;21.00;;;8.30;99.90;;;;;;5057008;28;20045;-71
2022/12/26 02:43:34;;;;;;;100.27;19.90;;;8.30;99.90;;;;;;5058357;28;20081;-70
2022/12/26 02:49:25;;;;;;;46.25;19.25;;;8.30;99.90;;;;;;5058392;28;20067;-71
2022/12/26 03:14:43;;;;;;;52.63;19.45;;;8.40;99.90;;;;;;5058471;28;20048;-72
2022/12/26 03:17:21;;;;;;;57.17;20.50;;;8.40;99.90;;;;;;5040996;28;20029;-71
2022/12/26 03:20:03;;;;;;;55.72;20.42;;;8.40;99.90;;;;;;5058016;28;20037;-71
2022/12/26 03:22:36;;;;;;;45.58;18.75;;;8.40;99.90;;;;;;5056972;28;20080;-70
2022/12/26 03:27:52;;;;;;;51.35;20.05;;;8.30;99.90;;;;;;5050745;28;20039;-70
2022/12/26 03:33:03;;;;;;;43.58;19.63;;;8.40;99.90;;;;;;5050016;28;20064;-71
2022/12/26 03:35:32;;;;;;;47.05;19.63;;;8.40;99.90;;;;;;5049441;28;20037;-72
2022/12/26 03:38:12;;;;;;;46.95;19.27;;;8.30;99.90;;;;;;5055387;28;20047;-72
2022/12/26 04:45:12;;;;;;;37.63;14.88;;;8.30;99.90;;;;;;5060193;28;20036;-70
2022/12/26 04:50:10;;;;;;;33.42;14.95;;;8.30;99.90;;;;;;5059741;28;20025;-72
2022/12/26 04:50:32;;;;;;;37.95;14.90;;;8.40;99.90;;;;;;5059677;28;20081;-70
2022/12/26 04:52:58;;;;;;;32.50;14.27;;;8.30;99.90;;;;;;5060099;28;20048;-72
2022/12/26 04:55:25;;;;;;;28.05;13.10;;;8.30;99.90;;;;;;5060175;28;20497;-67
2022/12/26 04:57:52;;;;;;;34.67;14.30;;;8.40;99.90;;;;;;5058322;28;20366;-71
2022/12/26 05:00:19;;;;;;;35.13;14.75;;;8.40;99.90;;;;;;5060011;28;20109;-71
2022/12/26 05:11:21;;;;;;;31.27;13.20;;;8.40;99.90;;;;;;5063612;28;20090;-72
2022/12/26 05:13:47;;;;;;;31.70;15.02;;;8.40;99.90;;;;;;5063897;28;20036;-72
2022/12/26 05:30:03;;;;;;;38.22;17.75;;;8.40;99.90;;;;;;5063406;28;20074;-72
2022/12/26 05:35:13;;;;;;;47.05;19.58;;;8.40;99.90;;;;;;5063628;28;20093;-72
2022/12/26 05:37:39;;;;;;;44.83;19.98;;;8.40;99.90;;;;;;5062396;28;20025;-70
2022/12/26 05:40:05;;;;;;;44.28;20.25;;;8.40;99.90;;;;;;5045252;28;20033;-67
2022/12/26 05:42:30;;;;;;;41.58;18.50;;;8.40;99.90;;;;;;5063109;28;20055;-69
2022/12/26 05:44:56;;;;;;;45.65;20.52;;;8.40;99.90;;;;;;5063177;28;20024;-70
2022/12/26 05:47:22;;;;;;;41.58;20.25;;;8.50;99.90;;;;;;5063029;28;20064;-73
2022/12/26 05:49:47;;;;;;;43.25;18.90;;;8.50;99.90;;;;;;5062623;28;20041;-70
2022/12/26 05:52:13;;;;;;;44.45;19.55;;;8.40;99.90;;;;;;5045223;28;20457;-69
2022/12/26 05:54:38;;;;;;;51.35;19.60;;;8.50;99.90;;;;;;5062956;28;20032;-71
2022/12/26 05:57:04;;;;;;;47.25;19.55;;;8.50;99.90;;;;;;5062755;28;20037;-72
2022/12/26 05:59:30;;;;;;;45.15;19.05;;;8.50;99.90;;;;;;5062671;28;20023;-71
2022/12/26 06:01:55;;;;;;;39.20;19.60;;;8.50;99.90;;;;;;5063164;28;20033;-69
2022/12/26 06:04:21;;;;;;;45.78;20.17;;;8.50;99.90;;;;;;5062744;28;20036;-71
2022/12/26 06:06:47;;;;;;;54.38;20.23;;;8.50;99.90;;;;;;5062884;28;20022;-71
2022/12/26 06:09:16;;;;;;;45.03;19.23;;;8.50;99.90;;;;;;5044579;28;20071;-69
2022/12/26 06:11:42;;;;;;;48.20;20.23;;;8.50;99.90;;;;;;5044037;28;20885;-71
2022/12/26 06:14:07;;;;;;;46.53;21.05;;;8.50;99.90;;;;;;5062828;28;20025;-70
2022/12/26 06:16:33;;;;;;;46.42;20.15;;;8.50;99.90;;;;;;5062241;28;20037;-69
2022/12/26 06:18:58;;;;;;;45.78;20.02;;;8.50;99.90;;;;;;5062536;28;20055;-71
2022/12/26 06:21:25;;;;;;;41.60;20.00;;;8.50;99.90;;;;;;5061079;28;20060;-71
2022/12/26 06:23:50;;;;;;;50.40;21.45;;;8.50;99.90;;;;;;5061449;28;20426;-70
2022/12/26 06:26:16;;;;;;;51.20;20.92;;;8.50;99.90;;;;;;5062496;28;20025;-70
2022/12/26 06:28:43;;;;;;;48.08;20.33;;;8.50;99.90;;;;;;5043751;28;20091;-71
2022/12/26 06:31:13;;;;;;;43.72;20.60;;;8.50;99.90;;;;;;5060646;28;20106;-70
2022/12/26 06:33:39;;;;;;;47.92;21.20;;;8.50;99.90;;;;;;5061712;28;20017;-69
2022/12/26 06:36:10;;;;;;;44.15;20.67;;;8.50;99.90;;;;;;5062173;28;20090;-68
2022/12/26 06:38:36;;;;;;;43.03;20.25;;;8.50;99.90;;;;;;5061776;28;20149;-70
2022/12/26 06:41:06;;;;;;;48.45;21.65;;;8.50;99.90;;;;;;5061985;28;20092;-71
2022/12/26 06:43:31;;;;;;;50.95;20.17;;;8.50;99.90;;;;;;5061880;28;20466;-69
2022/12/26 06:45:58;;;;;;;47.85;22.50;;;8.50;99.90;;;;;;5061847;28;20025;-70
2022/12/26 06:48:28;;;;;;;49.42;21.33;;;8.50;99.90;;;;;;5061706;28;20029;-69
2022/12/26 06:50:55;;;;;;;51.33;22.13;;;8.50;99.90;;;;;;5062154;28;20060;-71
2022/12/26 06:53:22;;;;;;;49.40;22.05;;;8.50;99.90;;;;;;5061494;28;20074;-70
2022/12/26 06:55:49;;;;;;;42.22;19.52;;;8.50;99.90;;;;;;5044055;28;20041;-70
2022/12/26 06:58:16;;;;;;;56.22;23.20;;;8.50;99.90;;;;;;5060625;28;20060;-72
2022/12/26 07:00:42;;;;;;;50.70;22.75;;;8.50;99.90;;;;;;5058374;28;20028;-70
2022/12/26 07:03:09;;;;;;;51.33;22.27;;;8.50;99.90;;;;;;5060876;28;20025;-68
2022/12/26 07:05:36;;;;;;;54.03;22.65;;;8.50;99.90;;;;;;5061578;28;20584;-68
2022/12/26 07:08:02;;;;;;;52.78;22.42;;;8.60;99.90;;;;;;5059739;28;20142;-69
2022/12/26 07:10:28;;;;;;;56.63;24.85;;;8.60;99.90;;;;;;5057202;28;20028;-67
2022/12/26 07:12:54;;;;;;;51.90;23.65;;;8.50;99.90;;;;;;5050434;28;20029;-67
2022/12/26 07:15:20;;;;;;;52.45;22.77;;;8.60;99.90;;;;;;5057850;28;20029;-69
2022/12/26 07:17:45;;;;;;;51.00;21.92;;;8.60;99.90;;;;;;5054639;28;20036;-69
2022/12/26 07:20:11;;;;;;;54.80;24.10;;;8.60;99.90;;;;;;5055624;28;20025;-68
2022/12/26 07:22:37;;;;;;;57.83;25.13;;;8.60;99.90;;;;;;5038380;28;20430;-65
2022/12/26 07:25:03;;;;;;;61.47;26.45;;;8.60;99.90;;;;;;5019270;28;20033;-68
2022/12/26 07:27:28;;;;;;;63.90;26.60;;;8.60;99.90;;;;;;5038456;28;20036;-69
2022/12/26 07:29:54;;;;;;;66.57;26.48;;;8.60;99.90;;;;;;5038724;28;20124;-68
2022/12/26 07:32:25;;;;;;;57.20;25.90;;;8.70;99.90;;;;;;5030821;28;20040;-69
2022/12/26 07:34:52;;;;;;;60.20;25.63;;;8.70;99.90;;;;;;5037826;28;20410;-69
2022/12/26 07:37:24;;;;;;;61.40;26.67;;;8.70;99.90;;;;;;5039164;28;21012;-69
2022/12/26 07:39:50;;;;;;;62.78;27.65;;;8.70;99.90;;;;;;5036557;28;20033;-71
2022/12/26 07:42:15;;;;;;;60.88;26.92;;;8.70;99.90;;;;;;5038500;28;20026;-66
2022/12/26 07:44:41;;;;;;;55.80;24.55;;;8.70;99.90;;;;;;5038462;28;20017;-70
2022/12/26 07:47:07;;;;;;;58.55;27.08;;;8.70;99.90;;;;;;5033157;28;20094;-68
2022/12/26 07:49:32;;;;;;;56.92;26.85;;;8.70;99.90;;;;;;5039001;28;20039;-67
2022/12/26 07:51:58;;;;;;;61.47;26.08;;;8.70;99.90;;;;;;5038998;28;20029;-68
2022/12/26 07:54:27;;;;;;;56.88;26.75;;;8.70;99.90;;;;;;5038471;28;20401;-69
2022/12/26 07:56:52;;;;;;;62.83;26.42;;;8.70;99.90;;;;;;5038773;28;20021;-69
2022/12/26 07:59:18;;;;;;;55.92;25.83;;;8.70;99.90;;;;;;5039099;28;20034;-68
2022/12/26 08:01:44;;;;;;;61.03;25.88;;;8.70;99.90;;;;;;5014881;28;20056;-66
2022/12/26 08:04:10;;;;;;;60.05;26.48;;;8.70;99.90;;;;;;5038586;28;20394;-68
2022/12/26 08:06:36;;;;;;;55.83;25.20;;;8.70;99.90;;;;;;5037449;28;20026;-68
2022/12/26 08:09:02;;;;;;;53.17;23.45;;;8.70;99.90;;;;;;5038922;28;20099;-68
2022/12/26 08:11:32;;;;;;;52.75;22.77;;;8.80;99.90;;;;;;5037811;28;20457;-69
2022/12/26 08:13:57;;;;;;;54.70;23.98;;;8.80;99.90;;;;;;5039214;28;20039;-69
2022/12/26 08:16:23;;;;;;;60.38;25.80;;;8.70;99.90;;;;;;5038887;28;21726;-68
2022/12/26 08:18:49;;;;;;;51.22;23.48;;;8.70;99.90;;;;;;5038718;28;20032;-68
2022/12/26 08:21:14;;;;;;;51.63;23.45;;;8.80;99.90;;;;;;5023390;28;20142;-67
2022/12/26 08:23:40;;;;;;;52.13;22.25;;;8.80;99.90;;;;;;5050285;28;20452;-69
2022/12/26 08:26:11;;;;;;;46.22;20.08;;;8.80;99.90;;;;;;5050123;28;20056;-68
2022/12/26 08:28:37;;;;;;;49.78;22.50;;;8.80;99.90;;;;;;5049390;28;20068;-69
2022/12/26 08:31:07;;;;;;;47.08;20.85;;;8.80;99.90;;;;;;5049714;28;20017;-68
2022/12/26 08:33:33;;;;;;;44.55;19.75;;;8.80;99.90;;;;;;5049426;28;20027;-69
2022/12/26 08:36:07;;;;;;;47.42;20.30;;;8.80;99.90;;;;;;5025498;28;20049;-68
2022/12/26 08:38:32;;;;;;;53.80;22.50;;;8.80;99.90;;;;;;5047941;28;20992;-69
2022/12/26 08:40:58;;;;;;;48.45;19.98;;;8.90;99.90;;;;;;5051653;28;20037;-66
2022/12/26 08:43:24;;;;;;;47.30;19.33;;;8.80;99.90;;;;;;5053269;28;20021;-71
2022/12/26 08:46:10;;;;;;;40.38;19.83;;;8.90;99.90;;;;;;5054263;28;20048;-70
2022/12/26 08:48:37;;;;;;;46.38;18.73;;;8.90;99.90;;;;;;5052559;28;20048;-68
2022/12/26 08:51:07;;;;;;;43.13;18.88;;;8.90;99.90;;;;;;5035346;28;20029;-68
2022/12/26 08:53:37;;;;;;;45.28;18.17;;;8.90;99.90;;;;;;5053405;28;20029;-69
2022/12/26 08:56:04;;;;;;;46.67;20.00;;;8.80;99.90;;;;;;5053936;28;20088;-68
2022/12/26 08:58:31;;;;;;;40.20;18.35;;;8.90;99.90;;;;;;5053723;28;20018;-68
2022/12/26 09:01:09;;;;;;;35.85;18.05;;;8.90;99.90;;;;;;5052940;28;20014;-70
2022/12/26 09:03:35;;;;;;;43.28;17.35;;;8.90;99.90;;;;;;5052006;28;20025;-70
2022/12/26 09:06:01;;;;;;;40.08;18.35;;;8.90;99.90;;;;;;5051875;28;20018;-70
2022/12/26 09:08:30;;;;;;;39.35;18.50;;;8.90;99.90;;;;;;5052965;28;20093;-70
2022/12/26 09:11:01;;;;;;;43.50;18.48;;;8.90;99.90;;;;;;5051966;28;20021;-70
2022/12/26 09:13:26;;;;;;;35.08;15.70;;;8.90;99.90;;;;;;5050622;28;20134;-69
2022/12/26 09:15:52;;;;;;;41.92;19.20;;;8.90;99.90;;;;;;5051518;28;20096;-68
2022/12/26 09:18:18;;;;;;;42.85;19.60;;;8.90;99.90;;;;;;5050159;28;20363;-70
2022/12/26 09:20:43;;;;;;;42.47;19.02;;;8.90;99.90;;;;;;5049928;28;20050;-65
2022/12/26 09:23:09;;;;;;;38.47;18.25;;;8.90;99.90;;;;;;5041640;28;20036;-68
2022/12/26 09:25:35;;;;;;;44.80;21.88;;;8.90;99.90;;;;;;5040602;28;20053;-66
2022/12/26 09:28:01;;;;;;;48.40;20.20;;;8.90;99.90;;;;;;5040655;28;20045;-69
2022/12/26 09:30:26;;;;;;;50.17;21.73;;;9.00;99.90;;;;;;5041091;28;20036;-68
2022/12/26 09:32:52;;;;;;;53.92;22.00;;;9.00;99.90;;;;;;5040908;28;20025;-68
2022/12/26 09:35:18;;;;;;;51.47;19.80;;;9.00;99.90;;;;;;5024614;28;20060;-70
2022/12/26 09:37:44;;;;;;;51.33;22.60;;;9.00;99.90;;;;;;5041751;28;20056;-69
2022/12/26 09:40:20;;;;;;;48.78;20.65;;;9.00;99.90;;;;;;5041417;28;20026;-69
2022/12/26 09:43:19;;;;;;;59.25;24.25;;;9.00;99.90;;;;;;5041435;28;20022;-68
2022/12/26 09:45:59;;;;;;;55.45;22.58;;;9.10;99.90;;;;;;5042138;28;20045;-68
2022/12/26 09:48:36;;;;;;;46.85;19.85;;;9.10;99.90;;;;;;5036187;28;20037;-68
2022/12/26 09:51:03;;;;;;;41.03;19.80;;;9.20;99.90;;;;;;5032112;28;20048;-68
2022/12/26 09:53:33;;;;;;;45.78;21.00;;;9.20;99.90;;;;;;5039979;28;20022;-68
2022/12/26 09:56:04;;;;;;;44.03;21.95;;;9.20;99.90;;;;;;5021034;28;20467;-68
2022/12/26 09:58:37;;;;;;;39.25;15.15;;;9.20;99.90;;;;;;5037446;28;20024;-64
2022/12/26 10:01:02;;;;;;;42.67;18.50;;;9.20;99.90;;;;;;5036932;28;20040;-66
2022/12/26 10:03:29;;;;;;;38.58;18.98;;;9.20;99.90;;;;;;5041101;28;20343;-67
2022/12/26 10:06:06;;;;;;;39.78;18.83;;;9.30;99.90;;;;;;5040591;28;20017;-69
2022/12/26 10:08:53;;;;;;;39.40;18.27;;;9.30;99.90;;;;;;5039661;28;20128;-67
2022/12/26 10:11:40;;;;;;;38.65;18.02;;;9.40;99.90;;;;;;5037870;28;20402;-68
2022/12/26 10:14:27;;;;;;;37.42;19.17;;;9.50;99.90;;;;;;5041020;28;20524;-67
2022/12/26 10:17:18;;;;;;;33.05;14.68;;;9.40;99.90;;;;;;5036365;28;20037;-66
2022/12/26 10:19:58;;;;;;;43.22;19.52;;;9.40;99.90;;;;;;5041065;28;20137;-67
2022/12/26 10:22:41;;;;;;;37.58;18.02;;;9.40;99.90;;;;;;5033941;28;20045;-68
2022/12/26 10:25:20;;;;;;;33.30;15.68;;;9.40;99.90;;;;;;5051618;28;20020;-68
2022/12/26 10:27:48;;;;;;;27.35;13.27;;;9.40;99.90;;;;;;5057156;28;20072;-67
2022/12/26 10:30:20;;;;;;;26.80;11.88;;;9.40;99.90;;;;;;5062466;28;20111;-69
2022/12/26 10:32:53;;;;;;;37.92;17.40;;;9.40;99.90;;;;;;5053594;28;20084;-71
2022/12/26 10:35:22;;;;;;;36.77;16.20;;;9.40;99.90;;;;;;5056119;28;20024;-68
2022/12/26 10:37:50;;;;;;;38.28;15.52;;;9.40;99.90;;;;;;5052844;28;20255;-68
2022/12/26 10:40:26;;;;;;;30.02;14.95;;;9.40;99.90;;;;;;5038078;28;20137;-68
2022/12/26 10:42:54;;;;;;;33.08;13.82;;;9.40;99.90;;;;;;5059734;28;20075;-67
2022/12/26 10:45:42;;;;;;;28.17;12.95;;;9.40;99.90;;;;;;5060924;28;20025;-68
2022/12/26 10:48:11;;;;;;;28.00;13.18;;;9.40;99.90;;;;;;5049214;28;20061;-64
2022/12/26 10:50:39;;;;;;;28.30;12.77;;;9.40;99.90;;;;;;5060355;28;20085;-66
2022/12/26 10:53:06;;;;;;;29.88;13.63;;;9.40;99.90;;;;;;5057347;28;20026;-68
2022/12/26 10:55:34;;;;;;;28.40;11.88;;;9.40;99.90;;;;;;5055376;28;20064;-70
2022/12/26 10:58:05;;;;;;;26.90;12.65;;;9.50;99.90;;;;;;5051562;28;20025;-68
2022/12/26 11:00:33;;;;;;;22.73;12.02;;;9.50;99.90;;;;;;5041994;28;20405;-68
2022/12/26 11:03:07;;;;;;;23.38;11.68;;;9.50;99.90;;;;;;5053196;28;20033;-67
2022/12/26 11:05:37;;;;;;;25.67;12.70;;;9.60;99.90;;;;;;5054741;28;20089;-68
2022/12/26 11:08:16;;;;;;;26.40;12.35;;;9.60;99.90;;;;;;5055534;28;20034;-68
2022/12/26 11:11:00;;;;;;;26.73;12.75;;;9.60;99.90;;;;;;5051823;28;20057;-70
2022/12/26 11:13:26;;;;;;;23.38;11.02;;;9.60;99.90;;;;;;5060988;28;20025;-68
2022/12/26 11:15:52;;;;;;;29.98;12.43;;;9.50;99.90;;;;;;5058744;28;20048;-65
2022/12/26 11:18:38;;;;;;;31.27;12.40;;;9.50;99.90;;;;;;5054794;28;20013;-67
2022/12/26 11:21:26;;;;;;;25.98;10.98;;;9.50;99.90;;;;;;5059087;28;20041;-67
2022/12/26 11:24:09;;;;;;;26.00;11.23;;;9.50;99.90;;;;;;5060679;28;20084;-66
2022/12/26 11:26:37;;;;;;;24.83;10.35;;;9.50;99.90;;;;;;5043361;28;20829;-69
2022/12/26 11:29:11;;;;;;;18.98;9.35;;;9.50;99.90;;;;;;5060457;28;20033;-64
2022/12/26 11:31:40;;;;;;;29.63;10.10;;;9.40;99.90;;;;;;5060119;28;20025;-68
2022/12/26 11:34:14;;;;;;;25.50;11.43;;;9.40;99.90;;;;;;5059707;28;20504;-66
2022/12/26 11:36:46;;;;;;;34.25;11.38;;;9.40;99.90;;;;;;5059563;28;20060;-68
2022/12/26 11:39:22;;;;;;;27.92;10.15;;;9.40;99.90;;;;;;5059808;28;20020;-67
2022/12/26 11:41:49;;;;;;;22.58;9.70;;;9.30;99.90;;;;;;5059991;28;20025;-67
2022/12/26 11:44:20;;;;;;;19.05;7.97;;;9.40;99.90;;;;;;5054741;28;20093;-68
2022/12/26 11:46:45;;;;;;;21.33;9.88;;;9.40;99.90;;;;;;5049849;28;20032;-66
2022/12/26 11:49:38;;;;;;;20.45;8.65;;;9.40;99.90;;;;;;5042152;28;20041;-68
2022/12/26 11:52:37;;;;;;;24.25;9.55;;;9.40;99.90;;;;;;5055325;28;20754;-68
2022/12/26 11:55:25;;;;;;;14.60;8.02;;;9.30;99.90;;;;;;5025249;28;20401;-68
2022/12/26 11:58:20;;;;;;;18.08;9.35;;;9.40;99.90;;;;;;5050990;28;20025;-65
2022/12/26 12:00:48;;;;;;;21.23;8.65;;;9.30;99.90;;;;;;5059500;28;20074;-70
2022/12/26 12:03:21;;;;;;;16.75;7.35;;;9.40;99.90;;;;;;5053381;28;20146;-66
2022/12/26 12:06:15;;;;;;;16.15;7.18;;;9.40;99.90;;;;;;5056095;28;20018;-66
2022/12/26 12:09:15;;;;;;;13.27;6.53;;;9.40;99.90;;;;;;5050536;28;20036;-67
2022/12/26 12:12:03;;;;;;;11.50;5.70;;;9.60;99.90;;;;;;5050777;28;20040;-67
2022/12/26 12:14:47;;;;;;;10.38;5.85;;;9.70;99.90;;;;;;5049090;28;20028;-67
2022/12/26 12:17:28;;;;;;;11.15;5.40;;;9.80;99.90;;;;;;5050269;28;20036;-68
2022/12/26 12:20:16;;;;;;;10.93;4.13;;;10.00;99.90;;;;;;5049900;28;20049;-68
2022/12/26 12:23:13;;;;;;;8.30;3.70;;;10.50;99.90;;;;;;5050224;28;20063;-68
2022/12/26 12:25:59;;;;;;;6.32;3.08;;;11.00;99.90;;;;;;5055092;28;20025;-71
2022/12/26 12:28:31;;;;;;;5.07;2.50;;;11.10;99.90;;;;;;5053243;28;20130;-67
2022/12/26 12:31:03;;;;;;;7.32;2.05;;;10.80;99.90;;;;;;5051711;28;20025;-65
2022/12/26 12:33:52;;;;;;;5.85;1.70;;;10.90;99.90;;;;;;5039261;28;20067;-67
2022/12/26 12:36:30;;;;;;;13.27;2.30;;;11.20;99.90;;;;;;5050973;28;20037;-68
2022/12/26 12:39:20;;;;;;;7.47;1.98;;;11.20;99.90;;;;;;5049584;28;20398;-68
2022/12/26 12:42:35;;;;;;;6.75;1.65;;;11.00;99.90;;;;;;5050185;28;20039;-69
2022/12/26 12:45:08;;;;;;;9.80;1.40;;;10.60;99.90;;;;;;5046846;28;20053;-67
2022/12/26 12:47:58;;;;;;;5.00;1.30;;;10.00;99.90;;;;;;5049607;28;20032;-69
2022/12/26 12:50:42;;;;;;;8.45;1.73;;;9.80;99.90;;;;;;5050882;28;20021;-68
2022/12/26 12:53:54;;;;;;;8.15;2.13;;;9.60;99.90;;;;;;5033671;28;20025;-68
2022/12/26 12:56:53;;;;;;;9.05;1.20;;;9.40;99.90;;;;;;5050274;28;20075;-67
2022/12/26 12:59:37;;;;;;;3.83;1.30;;;9.20;99.90;;;;;;5025504;28;20042;-68
2022/12/26 13:02:24;;;;;;;5.85;0.90;;;9.00;99.90;;;;;;5049150;28;20084;-70
2022/12/26 13:05:04;;;;;;;3.33;1.33;;;8.90;99.90;;;;;;5051346;28;20498;-68
2022/12/26 13:07:39;;;;;;;7.95;1.45;;;8.80;99.90;;;;;;5040192;28;20028;-68
2022/12/26 13:10:29;;;;;;;7.60;1.10;;;8.70;99.90;;;;;;5049238;28;20024;-67
2022/12/26 13:12:56;;;;;;;4.00;0.95;;;8.60;99.90;;;;;;5050377;28;20030;-69
2022/12/26 13:15:41;;;;;;;3.25;0.70;;;8.40;99.90;;;;;;5057054;28;20025;-67
2022/12/26 13:18:22;;;;;;;6.72;0.77;;;8.30;99.90;;;;;;5049409;28;20061;-67
2022/12/26 13:20:53;;;;;;;5.72;1.35;;;8.20;99.90;;;;;;5049744;28;20056;-68
2022/12/26 13:26:41;;;;;;;8.73;1.30;;;8.20;99.90;;;;;;5056364;28;20171;-68
2022/12/26 13:29:16;;;;;;;5.78;1.33;;;8.10;99.90;;;;;;5057058;28;20036;-67
2022/12/26 13:31:43;;;;;;;2.50;0.95;;;8.10;99.90;;;;;;5055186;28;20028;-67
2022/12/26 13:34:14;;;;;;;12.38;1.58;;;8.10;99.90;;;;;;5052412;28;20533;-69
2022/12/26 13:36:52;;;;;;;11.73;1.10;;;8.10;99.90;;;;;;5052475;28;20013;-68
2022/12/26 13:39:33;;;;;;;5.55;1.00;;;8.00;99.90;;;;;;5039912;28;20048;-66
2022/12/26 13:45:34;;;;;;;6.80;1.05;;;7.70;99.90;;;;;;5054470;28;20168;-65
2022/12/26 13:48:00;;;;;;;4.25;0.93;;;7.60;99.90;;;;;;5052602;28;20546;-65
2022/12/26 13:50:49;;;;;;;4.20;0.98;;;7.50;99.90;;;;;;5053292;28;20021;-67
2022/12/26 13:53:25;;;;;;;8.82;1.00;;;7.50;99.90;;;;;;5056824;28;20021;-68
2022/12/26 13:56:01;;;;;;;9.02;0.90;;;7.40;99.90;;;;;;5058459;28;20033;-66
2022/12/26 13:58:47;;;;;;;9.43;1.23;;;7.40;99.90;;;;;;5054079;28;20027;-66
2022/12/26 14:01:50;;;;;;;5.22;1.13;;;7.40;99.90;;;;;;5050476;28;20029;-66
2022/12/26 14:05:07;;;;;;;6.97;0.90;;;7.40;99.90;;;;;;5049571;28;20029;-65
2022/12/26 14:07:53;;;;;;;7.25;1.52;;;7.40;99.90;;;;;;5007602;28;20441;-67
2022/12/26 14:10:31;;;;;;;9.07;1.20;;;7.40;99.90;;;;;;5054838;28;20056;-65
2022/12/26 14:13:32;;;;;;;8.90;1.13;;;7.40;99.90;;;;;;5050686;28;20037;-67
2022/12/26 14:16:30;;;;;;;6.57;2.20;;;7.30;99.90;;;;;;5050583;28;20041;-67
2022/12/26 14:19:17;;;;;;;10.25;1.65;;;7.20;99.90;;;;;;5060958;28;20056;-68
2022/12/26 14:22:15;;;;;;;12.07;1.40;;;7.20;99.90;;;;;;5060434;28;20049;-68
2022/12/26 14:25:09;;;;;;;4.93;1.60;;;7.20;99.90;;;;;;5044472;28;20128;-67
2022/12/26 14:27:37;;;;;;;16.50;1.95;;;7.10;99.90;;;;;;5074515;28;20028;-67
2022/12/26 14:30:39;;;;;;;10.60;1.20;;;7.10;99.90;;;;;;5053134;28;20033;-67
2022/12/26 14:33:33;;;;;;;11.85;1.90;;;7.10;99.90;;;;;;5053206;28;20045;-69
2022/12/26 14:36:17;;;;;;;9.73;1.67;;;7.10;99.90;;;;;;5051933;28;20044;-67
2022/12/26 14:38:55;;;;;;;13.60;1.55;;;7.00;99.90;;;;;;5051037;28;20041;-69
2022/12/26 14:44:21;;;;;;;14.68;2.10;;;6.90;99.90;;;;;;5052405;28;20158;-68
2022/12/26 14:46:49;;;;;;;14.68;1.98;;;6.90;99.90;;;;;;5051341;28;20029;-69
2022/12/26 14:49:22;;;;;;;17.63;2.00;;;6.80;99.90;;;;;;5037871;28;20065;-67
2022/12/26 14:51:49;;;;;;;17.88;1.58;;;6.80;99.90;;;;;;5053196;28;20033;-69
2022/12/26 14:54:21;;;;;;;9.80;1.95;;;6.80;99.90;;;;;;5056551;28;20123;-68
2022/12/26 14:56:50;;;;;;;6.53;1.98;;;6.80;99.90;;;;;;5052554;28;20081;-69
2022/12/26 14:59:34;;;;;;;12.05;2.75;;;6.90;99.90;;;;;;5051289;28;20053;-68
2022/12/26 15:02:27;;;;;;;8.68;1.90;;;6.90;99.90;;;;;;5054331;28;20037;-68
2022/12/26 15:05:21;;;;;;;14.35;2.42;;;6.90;99.90;;;;;;5055046;28;20405;-67
2022/12/26 15:08:05;;;;;;;10.25;1.92;;;6.90;99.90;;;;;;5052970;28;20081;-68
2022/12/26 15:11:02;;;;;;;13.05;2.05;;;6.80;99.90;;;;;;5053738;28;20470;-68
2022/12/26 15:13:43;;;;;;;11.07;2.35;;;6.80;99.90;;;;;;5052555;28;20037;-67
2022/12/26 15:16:17;;;;;;;16.48;3.05;;;6.80;99.90;;;;;;5051492;28;20033;-68
2022/12/26 15:19:09;;;;;;;25.38;2.35;;;6.80;99.90;;;;;;5058718;28;20084;-67
2022/12/26 15:22:07;;;;;;;12.68;2.15;;;6.80;99.90;;;;;;5059267;28;20053;-68
2022/12/26 15:24:51;;;;;;;17.85;1.77;;;6.70;99.90;;;;;;5042049;28;20085;-67